Time;durP1;ratioP1;P1;durP2;ratioP2;P2;SDS_P1;SDS_P2;PMS_P1;PMS_P2;Temp;Humidity;BMP_temperature;BMP_pressure;BME280_temperature;BME280_humidity;BME280_pressure;Samples;Min_cycle;Max_cycle;Signal;HPM_P1;HPM_P2
2022/10/24 00:02:07;;;;;;;7.60;3.17;;;14.10;99.90;;;;;;5035428;28;20041;-74
2022/10/24 00:04:37;;;;;;;11.68;3.03;;;14.10;99.90;;;;;;5035134;28;20081;-73
2022/10/24 00:07:04;;;;;;;12.18;2.60;;;14.10;99.90;;;;;;5035151;28;20126;-73
2022/10/24 00:09:30;;;;;;;10.73;2.88;;;14.00;99.90;;;;;;5017160;28;20069;-74
2022/10/24 00:11:55;;;;;;;6.57;2.95;;;14.10;99.90;;;;;;5044050;28;20404;-72
2022/10/24 00:14:21;;;;;;;8.52;2.50;;;14.10;99.90;;;;;;5054763;28;20432;-73
2022/10/24 00:16:47;;;;;;;8.20;2.50;;;14.10;99.90;;;;;;5055028;28;20051;-76
2022/10/24 00:19:12;;;;;;;11.02;2.33;;;14.10;99.90;;;;;;5055229;28;20051;-73
2022/10/24 00:21:38;;;;;;;7.22;2.40;;;14.10;99.90;;;;;;5055202;28;20083;-75
2022/10/24 00:24:04;;;;;;;14.75;2.58;;;14.00;99.90;;;;;;5054959;28;20048;-72
2022/10/24 00:26:30;;;;;;;10.80;2.72;;;14.00;99.90;;;;;;5046958;28;20049;-74
2022/10/24 00:28:55;;;;;;;8.15;2.70;;;14.00;99.90;;;;;;5035059;28;20046;-72
2022/10/24 00:31:21;;;;;;;8.27;2.55;;;14.00;99.90;;;;;;5017352;28;20148;-73
2022/10/24 00:33:46;;;;;;;8.57;2.72;;;13.90;99.90;;;;;;5035045;28;20046;-73
2022/10/24 00:36:15;;;;;;;16.40;2.85;;;13.90;99.90;;;;;;5034652;28;20064;-76
2022/10/24 00:38:41;;;;;;;7.80;2.70;;;14.00;99.90;;;;;;5037029;28;20055;-72
2022/10/24 00:41:09;;;;;;;5.78;2.20;;;13.90;99.90;;;;;;5038781;28;20045;-73
2022/10/24 00:43:34;;;;;;;14.30;2.97;;;14.00;99.90;;;;;;5035137;28;20064;-73
2022/10/24 00:46:01;;;;;;;7.38;2.70;;;14.00;99.90;;;;;;5059026;28;20037;-74
2022/10/24 00:48:40;;;;;;;10.05;2.60;;;13.90;99.90;;;;;;5059418;28;20045;-73
2022/10/24 00:51:23;;;;;;;14.23;2.78;;;13.90;99.90;;;;;;5058582;28;20049;-73
2022/10/24 00:53:52;;;;;;;7.03;2.10;;;13.80;99.90;;;;;;5058825;28;20037;-74
2022/10/24 00:56:21;;;;;;;12.32;2.35;;;13.80;99.90;;;;;;5058561;28;20353;-74
2022/10/24 00:58:48;;;;;;;9.48;2.53;;;13.80;99.90;;;;;;5040341;28;20366;-76
2022/10/24 01:01:14;;;;;;;10.20;2.13;;;13.80;99.90;;;;;;5004691;28;20041;-73
2022/10/24 01:03:40;;;;;;;6.80;2.13;;;13.90;99.90;;;;;;5038717;28;20425;-72
2022/10/24 01:06:35;;;;;;;7.43;2.25;;;13.90;99.90;;;;;;5038212;28;20103;-74
2022/10/24 01:09:32;;;;;;;6.70;2.33;;;13.80;99.90;;;;;;5038180;28;20061;-74
2022/10/24 01:12:03;;;;;;;8.77;2.25;;;13.80;99.90;;;;;;5042587;28;20088;-73
2022/10/24 01:15:03;;;;;;;14.98;2.60;;;13.80;99.90;;;;;;5057652;28;20052;-73
2022/10/24 01:18:06;;;;;;;6.75;2.63;;;13.80;99.90;;;;;;5015749;28;20061;-73
2022/10/24 01:20:52;;;;;;;7.40;2.13;;;13.80;99.90;;;;;;5057925;28;20049;-73
2022/10/24 01:23:41;;;;;;;8.50;2.53;;;13.90;99.90;;;;;;5038782;28;20055;-73
2022/10/24 01:26:10;;;;;;;9.50;2.05;;;14.00;99.90;;;;;;5058727;28;20084;-73
2022/10/24 01:29:06;;;;;;;9.57;2.40;;;14.00;99.90;;;;;;5057988;28;20121;-73
2022/10/24 01:31:40;;;;;;;8.18;2.53;;;14.10;99.90;;;;;;5057893;28;20044;-73
2022/10/24 01:34:46;;;;;;;7.38;2.38;;;14.30;99.90;;;;;;5058528;28;20124;-72
2022/10/24 01:37:27;;;;;;;8.27;2.78;;;14.20;99.90;;;;;;4961594;28;20043;-73
2022/10/24 01:39:59;;;;;;;9.20;3.03;;;14.30;99.90;;;;;;5150538;23;20052;-74
2022/10/24 01:42:26;;;;;;;8.20;2.53;;;14.40;99.90;;;;;;5069081;28;20087;-73
2022/10/24 01:44:56;;;;;;;10.07;2.55;;;14.40;99.90;;;;;;5076943;28;20048;-74
2022/10/24 01:47:29;;;;;;;5.78;2.33;;;14.40;99.90;;;;;;5059788;28;20047;-74
2022/10/24 01:50:02;;;;;;;7.07;2.40;;;14.40;99.90;;;;;;5077269;28;20209;-75
2022/10/24 01:52:32;;;;;;;10.00;2.70;;;14.50;99.90;;;;;;5077769;28;20052;-73
2022/10/24 01:54:58;;;;;;;11.90;2.88;;;14.50;99.90;;;;;;5059822;28;20059;-73
2022/10/24 01:57:31;;;;;;;6.65;2.70;;;14.50;99.90;;;;;;5059904;28;20086;-72
2022/10/24 01:59:57;;;;;;;9.35;2.70;;;14.70;99.90;;;;;;5058784;28;20125;-73
2022/10/24 02:02:42;;;;;;;5.97;2.63;;;14.50;99.90;;;;;;5040160;28;20422;-73
2022/10/24 02:05:32;;;;;;;12.57;2.60;;;14.50;99.90;;;;;;5040193;28;20479;-74
2022/10/24 02:08:04;;;;;;;15.95;3.60;;;14.50;99.90;;;;;;5057426;28;20098;-73
2022/10/24 02:10:45;;;;;;;7.72;2.63;;;14.60;99.90;;;;;;5057257;28;20048;-74
2022/10/24 02:13:53;;;;;;;9.80;2.45;;;14.70;99.90;;;;;;5057639;28;20468;-73
2022/10/24 02:16:19;;;;;;;8.57;2.55;;;14.70;99.90;;;;;;4971209;28;20062;-74
2022/10/24 02:18:47;;;;;;;8.73;2.65;;;14.70;99.90;;;;;;5050954;28;20056;-73
2022/10/24 02:21:13;;;;;;;13.73;2.83;;;14.70;99.90;;;;;;5077141;28;20526;-74
2022/10/24 02:23:45;;;;;;;6.95;2.72;;;14.80;99.90;;;;;;5076974;28;20139;-73
2022/10/24 02:26:20;;;;;;;9.82;2.70;;;14.80;99.90;;;;;;5076956;28;20048;-73
2022/10/24 02:28:49;;;;;;;9.82;2.97;;;14.80;99.90;;;;;;5076748;28;20461;-74
2022/10/24 02:31:20;;;;;;;8.20;2.40;;;14.80;99.90;;;;;;5057202;28;20350;-74
2022/10/24 02:33:48;;;;;;;8.13;2.60;;;14.80;99.90;;;;;;5056421;28;20045;-73
2022/10/24 02:36:17;;;;;;;10.15;2.75;;;14.70;99.90;;;;;;5056631;28;20059;-75
2022/10/24 02:38:47;;;;;;;14.02;2.80;;;14.80;99.90;;;;;;5056974;28;20041;-74
2022/10/24 02:41:23;;;;;;;9.63;2.83;;;14.80;99.90;;;;;;5056405;28;20106;-75
2022/10/24 02:43:50;;;;;;;13.75;2.85;;;14.80;99.90;;;;;;5056496;28;20138;-75
2022/10/24 02:46:17;;;;;;;9.80;2.30;;;14.80;99.90;;;;;;5071128;28;20041;-73
2022/10/24 02:48:47;;;;;;;15.02;2.72;;;14.80;99.90;;;;;;5077045;28;20048;-74
2022/10/24 02:51:15;;;;;;;10.20;2.42;;;14.80;99.90;;;;;;5076482;28;20052;-74
2022/10/24 02:53:41;;;;;;;19.50;3.10;;;14.80;99.90;;;;;;5076404;28;20080;-74
2022/10/24 02:56:07;;;;;;;11.25;2.80;;;14.80;99.90;;;;;;5076535;28;20174;-73
2022/10/24 02:58:32;;;;;;;10.90;2.90;;;14.70;99.90;;;;;;5057019;28;20063;-75
2022/10/24 03:00:58;;;;;;;10.73;2.50;;;14.80;99.90;;;;;;5038770;28;20041;-74
2022/10/24 03:03:23;;;;;;;9.52;3.00;;;14.70;99.90;;;;;;5039312;28;20345;-75
2022/10/24 03:05:49;;;;;;;12.80;2.63;;;14.80;99.90;;;;;;5056165;28;20064;-73
2022/10/24 03:08:14;;;;;;;9.40;2.35;;;14.70;99.90;;;;;;5056823;28;20055;-73
2022/10/24 03:10:40;;;;;;;11.05;2.95;;;14.80;99.90;;;;;;5056631;28;20433;-74
2022/10/24 03:13:06;;;;;;;13.23;3.13;;;14.70;99.90;;;;;;5056799;28;20052;-74
2022/10/24 03:15:32;;;;;;;8.30;2.80;;;14.80;99.90;;;;;;5055512;28;20433;-75
2022/10/24 03:17:57;;;;;;;16.75;2.92;;;14.80;99.90;;;;;;5056395;28;20433;-72
2022/10/24 03:20:23;;;;;;;15.00;3.05;;;14.80;99.90;;;;;;5038650;28;20049;-74
2022/10/24 03:22:49;;;;;;;12.63;2.85;;;14.70;99.90;;;;;;5056208;28;20364;-74
2022/10/24 03:25:15;;;;;;;7.35;2.83;;;14.80;99.90;;;;;;5056063;28;20036;-73
2022/10/24 03:27:41;;;;;;;8.20;3.13;;;14.80;99.90;;;;;;5056571;28;20543;-73
2022/10/24 03:30:07;;;;;;;18.40;2.88;;;14.80;99.90;;;;;;5068511;28;20131;-73
2022/10/24 03:32:33;;;;;;;8.63;3.00;;;14.80;99.90;;;;;;5075941;28;20044;-74
2022/10/24 03:34:59;;;;;;;10.00;3.05;;;14.80;99.90;;;;;;5075623;28;20411;-73
2022/10/24 03:37:25;;;;;;;8.20;3.03;;;14.90;99.90;;;;;;5075750;28;20048;-74
2022/10/24 03:39:51;;;;;;;13.23;3.03;;;14.80;99.90;;;;;;5075353;28;20061;-74
2022/10/24 03:42:16;;;;;;;12.15;2.80;;;14.80;99.90;;;;;;5075555;28;20064;-74
2022/10/24 03:44:42;;;;;;;6.80;3.45;;;14.80;99.90;;;;;;5058085;28;20059;-73
2022/10/24 03:47:08;;;;;;;10.32;2.95;;;14.80;99.90;;;;;;5038120;28;20049;-74
2022/10/24 03:49:34;;;;;;;11.13;3.08;;;14.80;99.90;;;;;;5038075;28;20049;-73
2022/10/24 03:51:59;;;;;;;7.85;2.40;;;14.70;99.90;;;;;;5055460;28;20102;-74
2022/10/24 03:54:25;;;;;;;9.18;3.00;;;14.70;99.90;;;;;;5055443;28;20103;-73
2022/10/24 03:56:50;;;;;;;10.52;3.30;;;14.80;99.90;;;;;;5055383;28;20041;-73
2022/10/24 03:59:16;;;;;;;15.68;2.92;;;14.80;99.90;;;;;;5045640;28;20064;-74
2022/10/24 04:01:42;;;;;;;9.98;2.83;;;14.90;99.90;;;;;;5036323;28;20041;-73
2022/10/24 04:04:08;;;;;;;8.25;2.50;;;14.80;99.90;;;;;;5055360;28;20067;-74
2022/10/24 04:06:33;;;;;;;12.82;2.85;;;14.80;99.90;;;;;;5055257;28;20418;-74
2022/10/24 04:08:59;;;;;;;14.68;3.00;;;14.80;99.90;;;;;;5037516;28;20476;-73
2022/10/24 04:11:25;;;;;;;9.15;2.67;;;14.70;99.90;;;;;;5037483;28;20403;-76
2022/10/24 04:13:51;;;;;;;9.02;2.75;;;14.70;99.90;;;;;;5051191;28;20135;-73
2022/10/24 04:16:18;;;;;;;7.38;2.88;;;14.70;99.90;;;;;;5057416;28;20437;-73
2022/10/24 04:18:45;;;;;;;7.57;2.83;;;14.60;99.90;;;;;;5076364;28;20060;-75
2022/10/24 04:21:11;;;;;;;13.32;3.25;;;14.60;99.90;;;;;;5072600;28;20094;-74
2022/10/24 04:23:39;;;;;;;10.18;3.65;;;14.50;99.90;;;;;;5048575;28;20408;-72
2022/10/24 04:26:10;;;;;;;9.68;3.05;;;14.40;99.90;;;;;;5068818;28;20485;-74
2022/10/24 04:28:35;;;;;;;10.82;3.03;;;14.30;99.90;;;;;;5073599;28;20058;-72
2022/10/24 04:31:01;;;;;;;17.10;3.00;;;14.30;99.90;;;;;;5054845;28;20147;-73
2022/10/24 04:33:26;;;;;;;8.15;3.00;;;14.20;99.90;;;;;;5037524;28;20056;-72
2022/10/24 04:35:52;;;;;;;9.82;2.97;;;14.10;99.90;;;;;;5054629;28;20053;-74
2022/10/24 04:38:18;;;;;;;10.43;3.00;;;14.10;99.90;;;;;;5054918;28;20045;-73
2022/10/24 04:40:46;;;;;;;11.13;3.08;;;14.10;99.90;;;;;;5054995;28;20068;-72
2022/10/24 04:43:11;;;;;;;6.10;3.00;;;14.00;99.90;;;;;;5075099;28;20101;-73
2022/10/24 04:45:37;;;;;;;14.77;3.33;;;13.90;99.90;;;;;;5074933;28;20119;-73
2022/10/24 04:48:02;;;;;;;15.38;2.92;;;13.90;99.90;;;;;;5074743;28;20040;-74
2022/10/24 04:50:28;;;;;;;7.10;2.50;;;13.80;99.90;;;;;;5074937;28;20044;-73
2022/10/24 04:52:54;;;;;;;10.13;3.35;;;13.70;99.90;;;;;;5074843;28;20167;-73
2022/10/24 04:55:19;;;;;;;25.50;3.92;;;13.70;99.90;;;;;;5074660;28;20337;-73
2022/10/24 04:57:45;;;;;;;11.73;2.58;;;13.80;99.90;;;;;;5074499;28;20073;-73
2022/10/24 05:00:11;;;;;;;6.63;2.40;;;13.70;99.90;;;;;;5056547;28;20064;-73
2022/10/24 05:02:36;;;;;;;15.07;4.07;;;13.60;99.90;;;;;;5073614;28;20094;-73
2022/10/24 05:05:03;;;;;;;14.60;3.50;;;13.70;99.90;;;;;;5066442;28;20041;-74
2022/10/24 05:07:28;;;;;;;7.82;2.70;;;13.60;99.90;;;;;;5054728;28;20085;-73
2022/10/24 05:09:54;;;;;;;12.80;3.42;;;13.50;99.90;;;;;;5054401;28;20469;-73
2022/10/24 05:12:19;;;;;;;16.83;3.08;;;13.70;99.90;;;;;;5020895;28;20047;-73
2022/10/24 05:14:46;;;;;;;20.80;3.45;;;13.70;99.90;;;;;;5054634;28;20053;-74
2022/10/24 05:17:13;;;;;;;10.18;2.90;;;13.50;99.90;;;;;;5054270;28;20045;-72
2022/10/24 05:19:38;;;;;;;6.57;2.70;;;13.50;99.90;;;;;;5060389;28;20120;-74
2022/10/24 05:22:04;;;;;;;8.95;2.70;;;13.50;99.90;;;;;;5074741;28;20084;-72
2022/10/24 05:24:30;;;;;;;7.95;2.63;;;13.70;99.90;;;;;;5076064;28;20468;-73
2022/10/24 05:26:55;;;;;;;9.90;3.13;;;13.50;99.90;;;;;;5060315;28;20106;-75
2022/10/24 05:29:21;;;;;;;8.60;2.97;;;13.50;99.90;;;;;;5078148;28;20049;-74
2022/10/24 05:31:46;;;;;;;8.60;2.80;;;13.60;99.90;;;;;;5077974;28;20135;-74
2022/10/24 05:34:12;;;;;;;8.73;2.85;;;13.50;99.90;;;;;;5072725;28;20056;-73
2022/10/24 05:36:38;;;;;;;9.43;2.40;;;13.50;99.90;;;;;;5058243;28;20036;-73
2022/10/24 05:39:04;;;;;;;8.23;2.53;;;13.60;99.90;;;;;;5040284;28;20044;-74
2022/10/24 05:41:30;;;;;;;7.45;2.80;;;13.50;99.90;;;;;;5057061;28;20115;-73
2022/10/24 05:43:55;;;;;;;11.85;2.72;;;13.50;99.90;;;;;;5058040;28;20483;-75
2022/10/24 05:46:21;;;;;;;15.95;2.70;;;13.50;99.90;;;;;;5057605;28;20037;-76
2022/10/24 05:48:46;;;;;;;12.75;2.53;;;13.60;99.90;;;;;;5059872;28;20049;-74
2022/10/24 05:51:12;;;;;;;9.77;2.17;;;13.60;99.90;;;;;;5076794;28;20062;-73
2022/10/24 05:53:38;;;;;;;12.90;2.78;;;13.50;99.90;;;;;;5077651;28;20049;-73
2022/10/24 05:56:04;;;;;;;11.73;2.42;;;13.90;99.90;;;;;;5077382;28;20361;-75
2022/10/24 05:58:30;;;;;;;8.35;2.53;;;13.60;99.90;;;;;;5077595;28;20040;-73
2022/10/24 06:00:56;;;;;;;9.63;2.60;;;13.60;99.90;;;;;;5077991;28;20105;-73
2022/10/24 06:03:21;;;;;;;12.55;2.90;;;13.50;99.90;;;;;;5081109;28;20036;-72
2022/10/24 06:05:48;;;;;;;14.15;2.80;;;13.50;99.90;;;;;;5068253;28;20037;-74
2022/10/24 06:08:13;;;;;;;7.70;2.42;;;13.60;99.90;;;;;;5057479;28;20047;-74
2022/10/24 06:10:39;;;;;;;9.32;2.47;;;13.60;99.90;;;;;;5057243;28;20045;-74
2022/10/24 06:13:05;;;;;;;7.70;2.08;;;13.60;99.90;;;;;;5057095;28;20136;-74
2022/10/24 06:15:31;;;;;;;11.85;2.47;;;13.70;99.90;;;;;;5056944;28;20320;-73
2022/10/24 06:17:56;;;;;;;9.75;2.33;;;13.70;99.90;;;;;;5057143;28;20052;-74
2022/10/24 06:20:22;;;;;;;8.85;2.30;;;13.80;99.90;;;;;;5063952;28;20048;-73
2022/10/24 06:22:48;;;;;;;10.32;2.30;;;13.90;99.90;;;;;;5077655;28;20036;-73
2022/10/24 06:25:16;;;;;;;13.15;2.50;;;14.00;99.90;;;;;;5077394;28;20101;-73
2022/10/24 06:27:41;;;;;;;6.75;2.10;;;14.00;99.90;;;;;;5076763;28;20056;-73
2022/10/24 06:30:09;;;;;;;16.92;3.25;;;14.20;99.90;;;;;;5076528;28;20102;-75
2022/10/24 06:32:34;;;;;;;10.65;2.50;;;14.00;99.90;;;;;;5076889;28;20049;-73
2022/10/24 06:35:00;;;;;;;9.18;1.80;;;14.10;99.90;;;;;;5073957;28;20048;-72
2022/10/24 06:37:27;;;;;;;5.78;2.08;;;14.20;99.90;;;;;;5056032;28;20051;-73
2022/10/24 06:39:53;;;;;;;11.43;2.50;;;14.20;99.90;;;;;;5053214;28;20049;-73
2022/10/24 06:42:18;;;;;;;11.50;2.38;;;14.20;99.90;;;;;;5056465;28;20068;-73
2022/10/24 06:44:44;;;;;;;9.85;2.70;;;14.20;99.90;;;;;;5056526;28;20106;-74
2022/10/24 06:47:09;;;;;;;10.90;2.38;;;14.20;99.90;;;;;;5039406;28;20362;-73
2022/10/24 06:49:35;;;;;;;13.05;2.80;;;14.30;99.90;;;;;;5056661;28;20041;-73
2022/10/24 06:52:01;;;;;;;13.80;1.95;;;14.10;99.90;;;;;;5063972;28;20052;-74
2022/10/24 06:54:26;;;;;;;17.70;3.30;;;14.10;99.90;;;;;;5076144;28;20551;-75
2022/10/24 06:56:52;;;;;;;10.70;2.40;;;13.90;99.90;;;;;;5058554;28;20040;-73
2022/10/24 06:59:17;;;;;;;10.88;2.00;;;14.10;99.90;;;;;;5075570;28;20101;-72
2022/10/24 07:01:44;;;;;;;17.88;2.38;;;14.10;99.90;;;;;;5059490;28;20048;-74
2022/10/24 07:04:10;;;;;;;10.20;2.30;;;14.10;99.90;;;;;;5076290;28;20051;-71
2022/10/24 07:06:36;;;;;;;9.10;2.47;;;14.10;99.90;;;;;;5075637;28;20117;-73
2022/10/24 07:09:03;;;;;;;9.10;2.30;;;14.10;99.90;;;;;;5075149;28;20076;-73
2022/10/24 07:11:29;;;;;;;8.68;2.17;;;14.20;99.90;;;;;;5075791;28;20048;-74
2022/10/24 07:13:55;;;;;;;10.38;1.90;;;14.20;99.90;;;;;;5075942;28;20467;-73
2022/10/24 07:16:22;;;;;;;13.20;2.38;;;14.40;99.90;;;;;;5075843;28;20040;-72
2022/10/24 07:18:47;;;;;;;14.10;2.40;;;14.40;99.90;;;;;;5075848;28;20139;-71
2022/10/24 07:21:16;;;;;;;9.70;2.50;;;14.50;99.90;;;;;;5075953;28;20116;-72
2022/10/24 07:23:42;;;;;;;11.57;2.35;;;14.60;99.90;;;;;;5062645;28;20051;-74
2022/10/24 07:26:10;;;;;;;8.68;2.20;;;14.70;99.90;;;;;;5055764;28;20107;-74
2022/10/24 07:28:38;;;;;;;12.88;2.10;;;14.70;99.90;;;;;;5055752;28;20045;-71
2022/10/24 07:31:04;;;;;;;9.60;2.45;;;14.70;99.90;;;;;;5055544;28;20128;-72
2022/10/24 07:33:30;;;;;;;10.30;3.10;;;14.80;99.90;;;;;;5055695;28;20102;-75
2022/10/24 07:35:56;;;;;;;9.95;2.22;;;14.80;99.90;;;;;;5053180;28;20525;-73
2022/10/24 07:38:22;;;;;;;10.38;2.40;;;14.80;99.90;;;;;;5058911;28;20053;-71
2022/10/24 07:40:48;;;;;;;9.57;2.38;;;14.70;99.90;;;;;;5074225;28;20145;-71
2022/10/24 07:43:14;;;;;;;6.97;1.90;;;14.70;99.90;;;;;;5074976;28;20056;-73
2022/10/24 07:45:41;;;;;;;9.63;2.95;;;14.90;99.90;;;;;;5074827;28;20052;-71
2022/10/24 07:48:06;;;;;;;8.52;1.98;;;14.90;99.90;;;;;;5074089;28;20040;-72
2022/10/24 07:50:33;;;;;;;13.93;1.92;;;15.10;99.90;;;;;;5074257;28;20048;-72
2022/10/24 07:52:59;;;;;;;15.77;1.95;;;15.20;99.90;;;;;;5074928;28;20085;-71
2022/10/24 07:55:25;;;;;;;12.40;2.75;;;15.30;99.90;;;;;;5058694;28;20041;-71
2022/10/24 07:57:50;;;;;;;8.27;2.38;;;15.40;99.90;;;;;;5037008;28;20049;-70
2022/10/24 08:00:16;;;;;;;11.27;2.00;;;15.40;99.90;;;;;;5054634;28;20477;-71
2022/10/24 08:02:42;;;;;;;17.77;2.35;;;15.40;99.90;;;;;;5036767;28;20466;-71
2022/10/24 08:05:10;;;;;;;11.82;2.35;;;15.40;99.90;;;;;;5073585;28;20457;-72
2022/10/24 08:07:36;;;;;;;10.90;2.40;;;15.50;99.90;;;;;;5059525;28;20354;-74
2022/10/24 08:10:03;;;;;;;17.65;2.25;;;15.50;99.90;;;;;;5054353;28;20037;-72
2022/10/24 08:12:28;;;;;;;9.85;2.40;;;15.60;99.90;;;;;;5054377;28;20084;-73
2022/10/24 08:14:54;;;;;;;10.15;1.80;;;15.70;99.90;;;;;;5054495;28;20084;-72
2022/10/24 08:17:22;;;;;;;12.70;1.85;;;15.70;99.90;;;;;;5054333;28;20106;-74
2022/10/24 08:19:48;;;;;;;8.32;1.92;;;15.70;99.90;;;;;;5054297;28;20037;-73
2022/10/24 08:22:15;;;;;;;10.35;2.45;;;15.60;99.90;;;;;;5049411;28;20091;-72
2022/10/24 08:24:44;;;;;;;10.75;2.20;;;15.60;99.90;;;;;;5074198;28;20052;-75
2022/10/24 08:27:10;;;;;;;6.13;1.90;;;15.80;99.90;;;;;;5074578;28;20044;-72
2022/10/24 08:29:36;;;;;;;11.50;2.15;;;15.80;99.90;;;;;;5056716;28;20045;-73
2022/10/24 08:32:01;;;;;;;19.45;2.78;;;15.80;99.90;;;;;;5073707;28;20477;-73
2022/10/24 08:34:27;;;;;;;12.00;2.63;;;15.80;99.90;;;;;;5056459;28;20063;-73
2022/10/24 08:36:53;;;;;;;7.88;2.05;;;15.90;99.90;;;;;;5061362;28;20114;-74
2022/10/24 08:39:19;;;;;;;10.95;2.40;;;15.90;99.90;;;;;;5052470;28;20045;-73
2022/10/24 08:41:57;;;;;;;10.45;2.50;;;15.80;99.90;;;;;;5053773;28;20060;-73
2022/10/24 08:44:30;;;;;;;9.70;2.03;;;15.90;99.90;;;;;;5054078;28;20381;-75
2022/10/24 08:47:35;;;;;;;10.35;2.28;;;15.90;99.90;;;;;;5053950;28;20048;-73
2022/10/24 08:50:35;;;;;;;22.35;3.28;;;16.00;99.90;;;;;;5004073;28;20202;-72
2022/10/24 08:53:11;;;;;;;10.10;2.00;;;16.00;99.90;;;;;;5053991;28;20128;-73
2022/10/24 08:55:54;;;;;;;10.57;2.10;;;16.00;99.90;;;;;;5036645;28;20053;-74
2022/10/24 08:58:25;;;;;;;13.45;2.22;;;16.00;99.90;;;;;;5036833;28;20131;-72
2022/10/24 09:00:53;;;;;;;12.38;2.70;;;16.00;99.90;;;;;;5057849;28;20041;-73
2022/10/24 09:03:40;;;;;;;10.27;2.03;;;16.30;99.90;;;;;;5040058;28;20526;-73
2022/10/24 09:06:17;;;;;;;11.38;1.92;;;16.40;99.90;;;;;;5067655;28;20049;-73
2022/10/24 09:08:59;;;;;;;10.93;2.58;;;16.40;99.90;;;;;;5077840;28;20048;-74
2022/10/24 09:11:47;;;;;;;9.93;2.35;;;16.50;99.90;;;;;;5077964;28;20067;-74
2022/10/24 09:14:19;;;;;;;10.25;2.00;;;16.60;99.90;;;;;;5060086;28;20052;-74
2022/10/24 09:16:52;;;;;;;15.32;2.95;;;16.70;99.90;;;;;;5060232;28;20094;-74
2022/10/24 09:19:22;;;;;;;14.63;2.03;;;16.70;99.90;;;;;;5077640;28;20091;-72
2022/10/24 09:21:49;;;;;;;5.28;1.50;;;16.80;99.90;;;;;;5025130;28;20049;-73
2022/10/24 09:25:02;;;;;;;14.80;2.08;;;16.90;99.90;;;;;;5057433;28;20413;-73
2022/10/24 09:27:32;;;;;;;9.80;2.47;;;16.90;99.90;;;;;;5040082;28;20057;-74
2022/10/24 09:29:58;;;;;;;6.50;1.58;;;16.90;99.90;;;;;;5039885;28;20109;-73
2022/10/24 09:32:27;;;;;;;11.23;2.15;;;17.00;99.90;;;;;;5039422;28;20128;-74
2022/10/24 09:34:53;;;;;;;9.27;1.90;;;16.90;99.90;;;;;;5040923;28;20116;-73
2022/10/24 09:37:38;;;;;;;7.82;1.63;;;16.90;99.90;;;;;;5077192;28;20364;-73
2022/10/24 09:40:13;;;;;;;8.65;1.77;;;16.80;99.90;;;;;;5061994;28;20116;-74
2022/10/24 09:42:46;;;;;;;11.27;2.08;;;16.80;99.90;;;;;;5057231;28;20401;-73
2022/10/24 09:45:36;;;;;;;7.13;1.90;;;16.80;99.90;;;;;;5043221;28;20393;-73
2022/10/24 09:48:22;;;;;;;10.20;2.00;;;16.70;99.90;;;;;;5076395;28;20321;-73
2022/10/24 09:50:50;;;;;;;11.88;2.45;;;16.70;99.90;;;;;;5077028;28;20333;-75
2022/10/24 09:53:29;;;;;;;8.98;2.25;;;16.80;99.90;;;;;;5076847;28;20127;-73
2022/10/24 09:55:58;;;;;;;9.63;1.98;;;16.90;99.90;;;;;;5076909;28;20056;-74
2022/10/24 09:58:34;;;;;;;5.82;1.67;;;16.90;99.90;;;;;;5076884;28;20040;-73
2022/10/24 10:01:06;;;;;;;11.63;1.80;;;17.00;99.90;;;;;;5076893;28;20345;-73
2022/10/24 10:03:33;;;;;;;10.20;1.67;;;17.00;99.90;;;;;;5056912;28;20045;-73
2022/10/24 10:06:18;;;;;;;8.32;1.85;;;17.00;99.90;;;;;;5056553;28;20421;-73
2022/10/24 10:08:54;;;;;;;9.55;1.80;;;17.00;99.90;;;;;;5056652;28;20060;-73
2022/10/24 10:11:25;;;;;;;9.88;2.03;;;17.00;99.90;;;;;;5056466;28;20049;-72
2022/10/24 10:13:54;;;;;;;14.60;1.73;;;17.00;99.90;;;;;;5038987;28;20052;-75
2022/10/24 10:16:31;;;;;;;10.13;1.92;;;17.00;99.90;;;;;;5061674;28;20033;-73
2022/10/24 10:19:13;;;;;;;5.13;1.73;;;17.10;99.90;;;;;;5042540;28;20075;-73
2022/10/24 10:22:24;;;;;;;7.60;1.75;;;17.10;99.90;;;;;;5076313;28;20036;-73
2022/10/24 10:24:50;;;;;;;8.35;1.80;;;17.20;99.90;;;;;;5065708;28;20155;-74
2022/10/24 10:27:29;;;;;;;14.10;1.83;;;17.10;99.90;;;;;;5076470;28;20083;-71
2022/10/24 10:30:10;;;;;;;11.27;1.95;;;17.00;99.90;;;;;;5058714;28;20055;-72
2022/10/24 10:33:08;;;;;;;14.10;2.10;;;17.00;99.90;;;;;;5063969;28;20338;-72
2022/10/24 10:36:01;;;;;;;10.95;2.45;;;16.90;99.90;;;;;;5064828;28;20044;-72
2022/10/24 10:38:49;;;;;;;13.10;1.98;;;16.80;99.90;;;;;;5037172;28;20056;-73
2022/10/24 10:41:31;;;;;;;10.15;1.85;;;16.90;99.90;;;;;;5061651;28;20082;-73
2022/10/24 10:44:18;;;;;;;17.67;2.47;;;16.90;99.90;;;;;;5075992;28;20416;-72
2022/10/24 10:47:24;;;;;;;7.50;1.67;;;16.90;99.90;;;;;;5056427;28;20037;-71
2022/10/24 10:49:56;;;;;;;10.77;2.45;;;17.10;99.90;;;;;;5057943;28;20128;-74
2022/10/24 10:52:28;;;;;;;9.65;1.70;;;17.20;99.90;;;;;;5040821;28;20475;-72
2022/10/24 10:55:05;;;;;;;10.43;1.80;;;17.20;99.90;;;;;;5075823;28;20044;-72
2022/10/24 10:57:52;;;;;;;7.70;1.70;;;17.30;99.90;;;;;;5075531;28;20057;-73
2022/10/24 11:00:42;;;;;;;7.82;1.75;;;17.40;99.90;;;;;;5057954;28;20401;-72
2022/10/24 11:03:22;;;;;;;7.72;1.67;;;17.50;99.90;;;;;;5068681;28;20060;-73
2022/10/24 11:06:04;;;;;;;6.50;1.52;;;17.50;99.90;;;;;;5061634;28;20447;-72
2022/10/24 11:08:44;;;;;;;10.45;1.83;;;17.50;99.90;;;;;;5074858;28;20044;-73
2022/10/24 11:11:16;;;;;;;9.95;1.60;;;17.60;99.90;;;;;;5055174;28;20132;-74
2022/10/24 11:14:13;;;;;;;8.85;1.63;;;17.60;99.90;;;;;;5055166;28;20055;-71
2022/10/24 11:16:39;;;;;;;11.25;1.50;;;17.70;99.90;;;;;;5055428;28;20033;-74
2022/10/24 11:19:21;;;;;;;10.05;2.00;;;17.80;99.90;;;;;;5051175;28;20055;-73
2022/10/24 11:21:48;;;;;;;9.07;1.80;;;17.80;99.90;;;;;;5036898;28;20116;-74
2022/10/24 11:24:19;;;;;;;9.88;1.65;;;17.80;99.90;;;;;;5055065;28;20334;-72
2022/10/24 11:26:57;;;;;;;7.60;1.77;;;17.90;99.90;;;;;;5055053;28;20045;-72
2022/10/24 11:29:47;;;;;;;9.57;1.85;;;17.90;99.90;;;;;;5055071;28;20055;-72
2022/10/24 11:32:34;;;;;;;8.07;1.58;;;17.80;99.90;;;;;;5060791;28;20131;-74
2022/10/24 11:35:24;;;;;;;8.15;2.17;;;17.70;99.90;;;;;;5032339;28;20526;-72
2022/10/24 11:37:56;;;;;;;10.38;1.40;;;17.60;99.90;;;;;;5053484;28;20515;-73
2022/10/24 11:40:23;;;;;;;6.18;1.85;;;17.60;99.90;;;;;;5054685;28;20103;-73
2022/10/24 11:43:10;;;;;;;7.57;1.52;;;17.60;99.90;;;;;;5054794;28;20056;-74
2022/10/24 11:45:52;;;;;;;7.00;1.40;;;17.60;99.90;;;;;;5054914;28;20084;-74
2022/10/24 11:48:43;;;;;;;6.63;1.67;;;17.60;99.90;;;;;;5053291;28;20040;-72
2022/10/24 11:51:23;;;;;;;7.05;1.45;;;17.60;99.90;;;;;;5054354;28;20049;-74
2022/10/24 11:53:50;;;;;;;4.70;1.20;;;17.50;99.90;;;;;;5037143;28;20053;-72
2022/10/24 11:56:34;;;;;;;9.13;1.30;;;17.50;99.90;;;;;;5054645;28;20369;-74
2022/10/24 11:59:06;;;;;;;12.98;2.13;;;17.40;99.90;;;;;;5054277;28;20048;-73
2022/10/24 12:01:53;;;;;;;8.00;1.40;;;17.40;99.90;;;;;;5054510;28;20401;-72
2022/10/24 12:04:35;;;;;;;10.23;1.77;;;17.30;99.90;;;;;;5036392;28;20045;-72
2022/10/24 12:07:31;;;;;;;8.20;2.10;;;17.30;99.90;;;;;;5053150;28;20468;-73
2022/10/24 12:10:27;;;;;;;8.32;2.00;;;17.30;99.90;;;;;;5046360;28;20139;-72
2022/10/24 12:13:23;;;;;;;8.15;1.80;;;17.20;99.90;;;;;;5043281;28;20045;-73
2022/10/24 12:15:56;;;;;;;9.40;1.65;;;17.10;99.90;;;;;;5054304;28;20056;-72
2022/10/24 12:18:27;;;;;;;7.00;1.50;;;17.10;99.90;;;;;;5053711;28;20037;-72
2022/10/24 12:20:55;;;;;;;11.68;1.55;;;17.20;99.90;;;;;;5036712;28;20378;-74
2022/10/24 12:23:23;;;;;;;9.85;2.00;;;17.30;99.90;;;;;;5036577;28;20049;-72
2022/10/24 12:26:17;;;;;;;7.55;1.77;;;17.40;99.90;;;;;;5053193;28;20105;-72
2022/10/24 12:28:59;;;;;;;7.13;1.58;;;17.30;99.90;;;;;;5044889;28;20041;-70
2022/10/24 12:31:30;;;;;;;8.10;1.60;;;17.30;99.90;;;;;;5036992;28;20053;-71
2022/10/24 12:34:14;;;;;;;12.85;1.55;;;17.30;99.90;;;;;;5049093;28;20060;-70
2022/10/24 12:37:10;;;;;;;4.60;1.50;;;17.40;99.90;;;;;;5039189;28;20045;-73
2022/10/24 12:39:50;;;;;;;7.85;1.42;;;17.40;99.90;;;;;;5060869;28;20056;-75
2022/10/24 12:42:36;;;;;;;8.23;1.73;;;17.40;99.90;;;;;;5061040;28;20060;-72
2022/10/24 12:45:04;;;;;;;8.77;1.70;;;17.40;99.90;;;;;;5022250;28;20128;-73
2022/10/24 12:47:59;;;;;;;10.38;1.80;;;17.30;99.90;;;;;;5078604;28;20456;-74
2022/10/24 12:50:26;;;;;;;10.43;1.80;;;17.30;99.90;;;;;;4970495;28;20078;-74
2022/10/24 12:52:54;;;;;;;6.15;1.58;;;17.30;99.90;;;;;;5040675;28;20041;-72
2022/10/24 12:55:36;;;;;;;7.55;1.73;;;17.20;99.90;;;;;;5058345;28;20041;-72
2022/10/24 12:58:19;;;;;;;11.27;1.98;;;17.20;99.90;;;;;;5040562;28;20083;-73
2022/10/24 13:00:59;;;;;;;8.95;1.63;;;17.10;99.90;;;;;;5058671;28;20036;-72
2022/10/24 13:03:51;;;;;;;8.13;1.60;;;17.00;99.90;;;;;;5058585;28;20120;-73
2022/10/24 13:06:42;;;;;;;8.98;1.30;;;17.00;99.90;;;;;;5058224;28;20049;-73
2022/10/24 13:09:31;;;;;;;6.93;1.50;;;16.90;99.90;;;;;;5058448;28;20052;-74